createdAt,value
2023-02-28T00:00:54.920Z,102386.47
2023-02-28T00:03:21.320Z,102386.97
2023-02-28T00:05:47.835Z,102384.72
2023-02-28T00:08:14.484Z,102393.28
2023-02-28T00:10:40.867Z,102393.78
2023-02-28T00:13:07.787Z,102388.53
2023-02-28T00:15:35.261Z,102391.56
2023-02-28T00:18:03.212Z,102386.56
2023-02-28T00:20:30.494Z,102395.09
2023-02-28T00:22:57.266Z,102386.25
2023-02-28T00:25:26.469Z,102388.44
2023-02-28T00:27:53.668Z,102382.38
2023-02-28T00:30:22.702Z,102389.22
2023-02-28T00:32:49.725Z,102390.31
2023-02-28T00:35:16.428Z,102384.22
2023-02-28T00:37:43.654Z,102391.09
2023-02-28T00:40:12.238Z,102388.84
2023-02-28T00:42:39.073Z,102387.44
2023-02-28T00:45:06.337Z,102396.22
2023-02-28T00:47:33.388Z,102386.56
2023-02-28T00:50:00.298Z,102383.47
2023-02-28T00:52:26.862Z,102385.09
2023-02-28T00:54:53.210Z,102383.09
2023-02-28T00:57:19.757Z,102384.44
2023-02-28T00:59:46.202Z,102384.13
2023-02-28T01:02:12.586Z,102379.41
2023-02-28T01:04:40.172Z,102389.25
2023-02-28T01:07:06.828Z,102386.44
2023-02-28T01:09:33.513Z,102381.69
2023-02-28T01:12:00.346Z,102375.84
2023-02-28T01:14:26.935Z,102376.59
2023-02-28T01:16:53.379Z,102386.22
2023-02-28T01:19:20.308Z,102384.22
2023-02-28T01:21:46.933Z,102385.81
2023-02-28T01:24:13.336Z,102390.16
2023-02-28T01:26:40.211Z,102387.34
2023-02-28T01:29:06.579Z,102387.00
2023-02-28T01:31:33.279Z,102389.44
2023-02-28T01:34:00.128Z,102380.03
2023-02-28T01:36:27.078Z,102380.78
2023-02-28T01:38:53.583Z,102382.09
2023-02-28T01:41:25.735Z,102379.28
2023-02-28T01:44:05.422Z,102374.88
2023-02-28T01:46:34.065Z,102371.56
2023-02-28T01:49:09.916Z,102374.81
2023-02-28T01:51:52.346Z,102381.06
2023-02-28T01:54:29.437Z,102373.28
2023-02-28T01:57:07.010Z,102377.41
2023-02-28T01:59:52.089Z,102382.28
2023-02-28T02:02:23.031Z,102377.06
2023-02-28T02:05:02.869Z,102372.31
2023-02-28T02:07:34.223Z,102368.16
2023-02-28T02:10:04.635Z,102368.41
2023-02-28T02:13:04.537Z,102372.16
2023-02-28T02:15:53.957Z,102362.25
2023-02-28T02:18:23.253Z,102362.25
2023-02-28T02:21:11.804Z,102358.06
2023-02-28T02:24:03.634Z,102364.66
2023-02-28T02:27:21.784Z,102364.66
2023-02-28T02:30:21.488Z,102361.34
2023-02-28T02:32:47.790Z,102360.25
2023-02-28T02:35:27.071Z,102360.72
2023-02-28T02:38:10.336Z,102359.34
2023-02-28T02:40:48.086Z,102365.06
2023-02-28T02:43:20.677Z,102365.06
2023-02-28T02:45:53.079Z,102363.66
2023-02-28T02:48:22.585Z,102362.84
2023-02-28T02:50:58.952Z,102371.56
2023-02-28T02:53:33.354Z,102357.00
2023-02-28T02:56:02.356Z,102365.50
2023-02-28T02:58:35.207Z,102362.13
2023-02-28T03:01:04.519Z,102362.41
2023-02-28T03:03:33.619Z,102366.47
2023-02-28T03:06:01.915Z,102366.72
2023-02-28T03:08:30.699Z,102356.00
2023-02-28T03:11:00.753Z,102358.13
2023-02-28T03:13:53.088Z,102363.81
2023-02-28T03:16:39.813Z,102359.03
2023-02-28T03:19:29.446Z,102357.66
2023-02-28T03:22:27.731Z,102358.13
2023-02-28T03:25:30.158Z,102357.53
2023-02-28T03:28:05.506Z,102362.19
2023-02-28T03:30:55.496Z,102355.28
2023-02-28T03:33:33.060Z,102361.25
2023-02-28T03:36:21.428Z,102363.44
2023-02-28T03:39:06.363Z,102362.25
2023-02-28T03:41:39.788Z,102367.19
2023-02-28T03:44:17.155Z,102371.50
2023-02-28T03:46:51.870Z,102377.19
2023-02-28T03:49:23.314Z,102373.88
2023-02-28T03:51:52.039Z,102379.84
2023-02-28T03:54:29.814Z,102374.63
2023-02-28T03:57:03.190Z,102376.53
2023-02-28T03:59:35.669Z,102368.28
2023-02-28T04:02:02.498Z,102367.69
2023-02-28T04:04:29.447Z,102366.84
2023-02-28T04:07:05.051Z,102370.13
2023-02-28T04:09:33.157Z,102377.50
2023-02-28T04:11:59.746Z,102374.78
2023-02-28T04:14:26.711Z,102366.53
2023-02-28T04:16:53.607Z,102378.00
2023-02-28T04:19:22.242Z,102378.25
2023-02-28T04:21:54.206Z,102377.91
2023-02-28T04:24:23.098Z,102381.72
2023-02-28T04:26:52.251Z,102381.13
2023-02-28T04:29:22.323Z,102381.94
2023-02-28T04:31:49.205Z,102382.19
2023-02-28T04:34:16.100Z,102377.78
2023-02-28T04:36:42.491Z,102386.84
2023-02-28T04:39:10.655Z,102380.78
2023-02-28T04:41:37.331Z,102380.19
2023-02-28T04:44:05.145Z,102378.25
2023-02-28T04:46:31.718Z,102382.09
2023-02-28T04:48:58.198Z,102380.19
2023-02-28T04:51:24.605Z,102384.59
2023-02-28T04:53:51.199Z,102375.78
2023-02-28T04:56:19.208Z,102375.19
2023-02-28T04:58:45.991Z,102386.19
2023-02-28T05:01:37.450Z,102388.56
2023-02-28T05:04:05.799Z,102393.53
2023-02-28T05:06:33.382Z,102389.97
2023-02-28T05:09:01.926Z,102391.41
2023-02-28T05:11:37.162Z,102392.97
2023-02-28T05:14:05.741Z,102382.81
2023-02-28T05:16:35.706Z,102387.47
2023-02-28T05:19:02.194Z,102386.66
2023-02-28T05:21:34.162Z,102398.72
2023-02-28T05:24:03.210Z,102403.38
2023-02-28T05:26:30.556Z,102394.28
2023-02-28T05:28:59.896Z,102390.69
2023-02-28T05:31:29.906Z,102394.53
2023-02-28T05:33:58.664Z,102390.94
2023-02-28T05:36:25.382Z,102392.03
2023-02-28T05:38:52.625Z,102397.78
2023-02-28T05:41:20.866Z,102399.06
2023-02-28T05:43:47.810Z,102403.72
2023-02-28T05:46:16.263Z,102402.66
2023-02-28T05:48:43.996Z,102407.56
2023-02-28T05:51:11.737Z,102416.00
2023-02-28T05:53:41.956Z,102408.28
2023-02-28T05:56:08.281Z,102412.94
2023-02-28T05:58:35.570Z,102413.97
2023-02-28T06:01:24.712Z,102418.06
2023-02-28T06:03:51.755Z,102416.16
2023-02-28T06:06:18.217Z,102417.22
2023-02-28T06:08:45.610Z,102424.84
2023-02-28T06:11:12.118Z,102425.94
2023-02-28T06:13:38.492Z,102425.09
2023-02-28T06:16:05.302Z,102422.59
2023-02-28T06:18:32.011Z,102421.78
2023-02-28T06:20:58.525Z,102429.13
2023-02-28T06:23:24.883Z,102430.22
2023-02-28T06:25:51.577Z,102430.22
2023-02-28T06:28:18.170Z,102431.88
2023-02-28T06:30:46.428Z,102437.38
2023-02-28T06:33:13.086Z,102422.59
2023-02-28T06:35:39.416Z,102434.41
2023-02-28T06:38:05.777Z,102431.66
2023-02-28T06:40:35.116Z,102431.66
2023-02-28T06:43:01.725Z,102437.16
2023-02-28T06:45:28.321Z,102437.38
2023-02-28T06:47:55.015Z,102437.38
2023-02-28T06:50:21.474Z,102437.38
2023-02-28T06:52:48.313Z,102437.63
2023-02-28T06:55:15.014Z,102435.72
2023-02-28T06:57:41.415Z,102446.69
2023-02-28T07:00:10.550Z,102443.94
2023-02-28T07:02:38.660Z,102442.84
2023-02-28T07:05:06.820Z,102448.13
2023-02-28T07:07:33.401Z,102445.97
2023-02-28T07:09:59.959Z,102454.81
2023-02-28T07:12:26.337Z,102450.16
2023-02-28T07:14:52.821Z,102451.81
2023-02-28T07:17:19.198Z,102462.06
2023-02-28T07:19:45.600Z,102459.91
2023-02-28T07:22:12.659Z,102460.25
2023-02-28T07:24:40.110Z,102463.38
2023-02-28T07:27:07.345Z,102465.97
2023-02-28T07:29:33.709Z,102476.84
2023-02-28T07:32:00.086Z,102480.28
2023-02-28T07:34:27.119Z,102474.66
2023-02-28T07:36:54.757Z,102467.97
2023-02-28T07:39:22.640Z,102467.59
2023-02-28T07:41:49.040Z,102464.69
2023-02-28T07:44:15.684Z,102469.19
2023-02-28T07:46:42.036Z,102464.63
2023-02-28T07:49:08.511Z,102466.44
2023-02-28T07:51:35.023Z,102466.03
2023-02-28T07:54:01.497Z,102456.00
2023-02-28T07:56:28.402Z,102464.63
2023-02-28T07:58:55.116Z,102459.00
2023-02-28T08:01:21.830Z,102464.94
2023-02-28T08:03:48.615Z,102470.03
2023-02-28T08:06:21.126Z,102464.13
2023-02-28T08:08:48.009Z,102467.31
2023-02-28T08:11:15.358Z,102470.47
2023-02-28T08:13:43.537Z,102466.47
2023-02-28T08:16:10.649Z,102463.31
2023-02-28T08:18:37.281Z,102469.47
2023-02-28T08:21:08.400Z,102463.22
2023-02-28T08:23:34.768Z,102464.44
2023-02-28T08:26:01.130Z,102472.53
2023-02-28T08:28:27.752Z,102479.53
2023-02-28T08:30:54.838Z,102475.75
2023-02-28T08:33:21.726Z,102476.69
2023-02-28T08:35:48.317Z,102473.78
2023-02-28T08:38:14.626Z,102476.31
2023-02-28T08:40:41.564Z,102481.66
2023-02-28T08:43:07.938Z,102475.97
2023-02-28T08:45:34.434Z,102474.69
2023-02-28T08:48:00.796Z,102467.88
2023-02-28T08:50:27.729Z,102469.38
2023-02-28T08:52:54.218Z,102472.75
2023-02-28T08:55:21.983Z,102464.31
2023-02-28T08:57:48.402Z,102466.34
2023-02-28T09:00:15.396Z,102472.47
2023-02-28T09:02:43.617Z,102470.09
2023-02-28T09:05:11.292Z,102467.38
2023-02-28T09:07:37.672Z,102468.00
2023-02-28T09:10:04.636Z,102454.84
2023-02-28T09:12:35.432Z,102472.00
2023-02-28T09:15:02.439Z,102466.84
2023-02-28T09:17:30.621Z,102458.34
2023-02-28T09:19:58.051Z,102459.81
2023-02-28T09:22:24.838Z,102455.72
2023-02-28T09:24:51.252Z,102463.78
2023-02-28T09:27:18.124Z,102465.47
2023-02-28T09:29:44.551Z,102462.22
2023-02-28T09:32:11.072Z,102457.28
2023-02-28T09:34:38.307Z,102461.78
2023-02-28T09:37:04.794Z,102464.88
2023-02-28T09:39:31.906Z,102469.31
2023-02-28T09:41:58.739Z,102459.69
2023-02-28T09:44:37.482Z,102463.59
2023-02-28T09:47:28.628Z,102462.25
2023-02-28T09:49:59.645Z,102471.69
2023-02-28T09:52:31.379Z,102465.91
2023-02-28T09:55:19.087Z,102469.81
2023-02-28T09:57:46.807Z,102463.25
2023-02-28T10:00:26.016Z,102474.63
2023-02-28T10:03:26.436Z,102474.38
2023-02-28T10:06:05.519Z,102465.03
2023-02-28T10:08:48.004Z,102465.34
2023-02-28T10:11:18.041Z,102467.56
2023-02-28T10:14:04.777Z,102449.06
2023-02-28T10:16:47.293Z,102442.41
2023-02-28T10:19:27.258Z,102455.13
2023-02-28T10:22:03.311Z,102442.94
2023-02-28T10:24:54.706Z,102443.53
2023-02-28T10:27:23.610Z,102443.50
2023-02-28T10:30:01.654Z,102438.81
2023-02-28T10:32:31.917Z,102432.44
2023-02-28T10:35:00.770Z,102445.72
2023-02-28T10:37:29.556Z,102436.84
2023-02-28T10:39:56.674Z,102441.00
2023-02-28T10:42:28.925Z,102442.66
2023-02-28T10:45:16.369Z,102440.44
2023-02-28T10:47:56.896Z,102433.81
2023-02-28T10:50:32.307Z,102438.75
2023-02-28T10:53:15.727Z,102434.88
2023-02-28T10:55:42.532Z,102429.09
2023-02-28T10:58:29.834Z,102423.53
2023-02-28T11:00:56.789Z,102430.19
2023-02-28T11:03:31.985Z,102429.59
2023-02-28T11:05:59.328Z,102433.78
2023-02-28T11:08:26.242Z,102434.03
2023-02-28T11:10:58.811Z,102434.59
2023-02-28T11:13:34.724Z,102427.66
2023-02-28T11:16:06.371Z,102422.38
2023-02-28T11:18:54.751Z,102430.66
2023-02-28T11:21:27.093Z,102422.63
2023-02-28T11:24:02.248Z,102423.16
2023-02-28T11:26:47.310Z,102426.50
2023-02-28T11:29:18.407Z,102432.31
2023-02-28T11:31:45.010Z,102419.28
2023-02-28T11:34:26.370Z,102404.63
2023-02-28T11:36:55.539Z,102420.94
2023-02-28T11:39:22.146Z,102421.19
2023-02-28T11:41:58.693Z,102414.50
2023-02-28T11:44:47.324Z,102409.78
2023-02-28T11:47:22.368Z,102404.44
2023-02-28T11:49:58.326Z,102407.41
2023-02-28T11:52:54.898Z,102412.91
2023-02-28T11:55:38.923Z,102413.41
2023-02-28T11:58:25.096Z,102406.94
2023-02-28T12:01:28.889Z,102401.66
2023-02-28T12:04:26.987Z,102404.69
2023-02-28T12:07:01.127Z,102406.34
2023-02-28T12:09:45.010Z,102396.94
2023-02-28T12:12:35.612Z,102397.53
2023-02-28T12:15:23.329Z,102390.06
2023-02-28T12:18:23.144Z,102393.41
2023-02-28T12:21:02.998Z,102388.41
2023-02-28T12:24:06.911Z,102392.91
2023-02-28T12:26:40.907Z,102381.81
2023-02-28T12:29:18.081Z,102380.13
2023-02-28T12:31:54.159Z,102377.09
2023-02-28T12:34:26.282Z,102368.19
2023-02-28T12:36:57.204Z,102367.34
2023-02-28T12:39:49.476Z,102367.94
2023-02-28T12:42:30.375Z,102366.03
2023-02-28T12:45:03.546Z,102358.59
2023-02-28T12:47:31.243Z,102356.94
2023-02-28T12:50:12.175Z,102360.78
2023-02-28T12:53:01.665Z,102354.75
2023-02-28T12:55:51.315Z,102351.69
2023-02-28T12:58:38.834Z,102343.06
2023-02-28T13:01:34.724Z,102343.63
2023-02-28T13:04:01.314Z,102347.22
2023-02-28T13:06:46.552Z,102333.88
2023-02-28T13:09:16.537Z,102331.97
2023-02-28T13:11:54.205Z,102330.84
2023-02-28T13:14:25.109Z,102327.47
2023-02-28T13:16:59.192Z,102325.53
2023-02-28T13:19:28.431Z,102318.28
2023-02-28T13:21:56.162Z,102324.38
2023-02-28T13:24:41.032Z,102319.38
2023-02-28T13:27:09.471Z,102327.66
2023-02-28T13:29:42.968Z,102319.63
2023-02-28T13:32:09.825Z,102320.97
2023-02-28T13:34:38.940Z,102313.78
2023-02-28T13:37:24.014Z,102316.03
2023-02-28T13:39:54.222Z,102315.44
2023-02-28T13:42:27.414Z,102302.69
2023-02-28T13:45:02.836Z,102308.53
2023-02-28T13:47:33.043Z,102305.19
2023-02-28T13:50:27.391Z,102298.25
2023-02-28T13:53:16.716Z,102295.78
2023-02-28T13:56:11.306Z,102299.94
2023-02-28T13:59:03.157Z,102305.50
2023-02-28T14:02:01.470Z,102299.41
2023-02-28T14:04:47.368Z,102290.84
2023-02-28T14:07:24.904Z,102290.53
2023-02-28T14:10:21.428Z,102304.16
2023-02-28T14:13:12.026Z,102292.75
2023-02-28T14:15:44.632Z,102306.28
2023-02-28T14:18:18.937Z,102296.25
2023-02-28T14:20:48.695Z,102295.69
2023-02-28T14:23:31.570Z,102292.31
2023-02-28T14:26:22.815Z,102292.03
2023-02-28T14:29:16.119Z,102291.16
2023-02-28T14:31:49.659Z,102282.78
2023-02-28T14:34:43.928Z,102282.78
2023-02-28T14:37:20.358Z,102284.38
2023-02-28T14:39:47.767Z,102276.31
2023-02-28T14:42:35.629Z,102291.84
2023-02-28T14:45:03.972Z,102289.25
2023-02-28T14:47:36.482Z,102278.97
2023-02-28T14:50:05.196Z,102279.78
2023-02-28T14:52:34.299Z,102274.53
2023-02-28T14:55:05.043Z,102264.25
2023-02-28T14:57:40.210Z,102279.03
2023-02-28T15:00:22.557Z,102274.31
2023-02-28T15:02:49.097Z,102269.00
2023-02-28T15:05:18.702Z,102281.75
2023-02-28T15:07:47.382Z,102273.72
2023-02-28T15:10:26.408Z,102275.19
2023-02-28T15:13:02.423Z,102266.59
2023-02-28T15:16:05.072Z,102264.69
2023-02-28T15:18:34.100Z,102262.75
2023-02-28T15:21:07.425Z,102265.00
2023-02-28T15:23:36.991Z,102265.84
2023-02-28T15:26:03.918Z,102265.84
2023-02-28T15:28:30.944Z,102269.72
2023-02-28T15:31:01.730Z,102267.25
2023-02-28T15:33:33.855Z,102270.03
2023-02-28T15:36:18.524Z,102271.44
2023-02-28T15:38:44.986Z,102271.13
2023-02-28T15:41:38.991Z,102263.41
2023-02-28T15:44:22.509Z,102273.69
2023-02-28T15:47:00.141Z,102267.28
2023-02-28T15:49:27.163Z,102265.38
2023-02-28T15:51:56.579Z,102273.13
2023-02-28T15:54:31.452Z,102266.25
2023-02-28T15:57:02.704Z,102270.09
2023-02-28T15:59:31.540Z,102269.59
2023-02-28T16:02:12.926Z,102269.34
2023-02-28T16:04:57.530Z,102269.94
2023-02-28T16:07:25.110Z,102273.75
2023-02-28T16:09:55.440Z,102277.97
2023-02-28T16:12:26.877Z,102285.75
2023-02-28T16:14:55.332Z,102283.25
2023-02-28T16:17:23.721Z,102285.75
2023-02-28T16:19:50.221Z,102287.69
2023-02-28T16:22:16.886Z,102284.69
2023-02-28T16:24:43.541Z,102286.91
2023-02-28T16:27:31.731Z,102289.19
2023-02-28T16:29:58.282Z,102283.66
2023-02-28T16:32:24.753Z,102294.78
2023-02-28T16:34:51.701Z,102297.00
2023-02-28T16:37:19.419Z,102294.00
2023-02-28T16:39:46.780Z,102292.09
2023-02-28T16:42:28.157Z,102282.69
2023-02-28T16:44:56.231Z,102294.06
2023-02-28T16:47:23.258Z,102291.06
2023-02-28T16:49:49.814Z,102291.91
2023-02-28T16:52:16.411Z,102294.44
2023-02-28T16:54:43.140Z,102298.06
2023-02-28T16:57:21.931Z,102295.63
2023-02-28T16:59:51.627Z,102300.59
2023-02-28T17:02:20.314Z,102297.00
2023-02-28T17:04:47.541Z,102299.50
2023-02-28T17:07:16.970Z,102301.50
2023-02-28T17:09:45.740Z,102299.88
2023-02-28T17:12:13.073Z,102301.56
2023-02-28T17:14:39.509Z,102301.56
2023-02-28T17:17:07.065Z,102297.19
2023-02-28T17:19:35.208Z,102303.28
2023-02-28T17:22:01.641Z,102302.47
2023-02-28T17:24:31.229Z,102302.22
2023-02-28T17:26:58.036Z,102305.28
2023-02-28T17:29:25.315Z,102312.50
2023-02-28T17:31:53.135Z,102317.78
2023-02-28T17:34:20.499Z,102312.25
2023-02-28T17:36:48.311Z,102310.31
2023-02-28T17:39:16.523Z,102306.75
2023-02-28T17:41:43.062Z,102312.00
2023-02-28T17:44:10.017Z,102312.59
2023-02-28T17:46:37.250Z,102310.66
2023-02-28T17:49:04.266Z,102310.69
2023-02-28T17:51:30.975Z,102320.66
2023-02-28T17:53:57.363Z,102312.88
2023-02-28T17:56:26.274Z,102311.78
2023-02-28T17:58:54.856Z,102315.41
2023-02-28T18:01:22.847Z,102320.38
2023-02-28T18:03:49.445Z,102320.09
2023-02-28T18:06:33.958Z,102320.94
2023-02-28T18:09:00.563Z,102326.75
2023-02-28T18:11:41.896Z,102320.94
2023-02-28T18:14:09.038Z,102322.34
2023-02-28T18:16:35.459Z,102323.16
2023-02-28T18:19:04.525Z,102323.72
2023-02-28T18:21:31.683Z,102329.81
2023-02-28T18:23:58.452Z,102333.94
2023-02-28T18:26:24.830Z,102331.72
2023-02-28T18:28:51.212Z,102328.13
2023-02-28T18:31:20.353Z,102329.53
2023-02-28T18:33:51.427Z,102334.78
2023-02-28T18:36:19.081Z,102338.91
2023-02-28T18:38:45.964Z,102340.31
2023-02-28T18:41:12.976Z,102336.44
2023-02-28T18:43:39.513Z,102331.19
2023-02-28T18:46:09.774Z,102331.72
2023-02-28T18:48:36.741Z,102329.25
2023-02-28T18:51:11.058Z,102328.13
2023-02-28T18:53:42.658Z,102334.75
2023-02-28T18:56:13.198Z,102345.25
2023-02-28T18:58:40.266Z,102334.47
2023-02-28T19:01:21.398Z,102335.28
2023-02-28T19:03:49.874Z,102336.41
2023-02-28T19:06:18.237Z,102339.16
2023-02-28T19:08:44.673Z,102333.34
2023-02-28T19:11:13.278Z,102344.69
2023-02-28T19:13:39.953Z,102336.34
2023-02-28T19:16:08.499Z,102339.13
2023-02-28T19:18:35.685Z,102350.69
2023-02-28T19:21:02.281Z,102338.53
2023-02-28T19:23:29.218Z,102339.91
2023-02-28T19:25:57.512Z,102342.09
2023-02-28T19:28:24.246Z,102341.56
2023-02-28T19:30:53.091Z,102342.09
2023-02-28T19:33:20.758Z,102348.72
2023-02-28T19:35:49.138Z,102343.72
2023-02-28T19:38:15.906Z,102353.13
2023-02-28T19:40:42.241Z,102351.19
2023-02-28T19:43:09.513Z,102354.75
2023-02-28T19:45:37.908Z,102348.13
2023-02-28T19:48:04.389Z,102347.28
2023-02-28T19:50:31.699Z,102358.59
2023-02-28T19:52:59.995Z,102357.47
2023-02-28T19:55:27.270Z,102362.75
2023-02-28T19:57:53.661Z,102360.50
2023-02-28T20:00:20.141Z,102365.72
2023-02-28T20:02:46.577Z,102363.53
2023-02-28T20:05:13.172Z,102361.28
2023-02-28T20:07:39.539Z,102362.63
2023-02-28T20:10:06.399Z,102358.22
2023-02-28T20:12:32.938Z,102360.44
2023-02-28T20:14:59.822Z,102363.44
2023-02-28T20:17:26.253Z,102363.44
2023-02-28T20:19:54.251Z,102359.31
2023-02-28T20:22:20.898Z,102359.56
2023-02-28T20:24:48.433Z,102349.59
2023-02-28T20:27:15.605Z,102349.06
2023-02-28T20:29:41.993Z,102354.59
2023-02-28T20:32:08.523Z,102345.75
2023-02-28T20:34:34.934Z,102349.88
2023-02-28T20:37:01.511Z,102351.22
2023-02-28T20:39:29.060Z,102348.72
2023-02-28T20:41:55.462Z,102359.22
2023-02-28T20:44:21.936Z,102354.22
2023-02-28T20:46:48.389Z,102348.41
2023-02-28T20:49:15.722Z,102353.38
2023-02-28T20:51:42.264Z,102353.63
2023-02-28T20:54:11.137Z,102358.84
2023-02-28T20:56:38.302Z,102366.00
2023-02-28T20:59:05.374Z,102365.69
2023-02-28T21:01:32.662Z,102363.72
2023-02-28T21:04:03.037Z,102360.09
2023-02-28T21:06:33.045Z,102360.06
2023-02-28T21:09:00.993Z,102363.88
2023-02-28T21:11:30.124Z,102363.84
2023-02-28T21:13:59.568Z,102372.31
2023-02-28T21:16:27.056Z,102369.25
2023-02-28T21:18:55.184Z,102368.38
2023-02-28T21:21:24.438Z,102366.06
2023-02-28T21:23:52.636Z,102368.78
2023-02-28T21:26:21.410Z,102367.31
2023-02-28T21:29:02.261Z,102370.03
2023-02-28T21:31:31.994Z,102370.81
2023-02-28T21:34:00.301Z,102376.00
2023-02-28T21:36:32.815Z,102375.94
2023-02-28T21:39:08.102Z,102382.81
2023-02-28T21:41:36.181Z,102381.09
2023-02-28T21:44:02.566Z,102379.41
2023-02-28T21:46:30.495Z,102376.38
2023-02-28T21:48:58.459Z,102375.78
2023-02-28T21:51:33.762Z,102368.06
2023-02-28T21:54:00.618Z,102371.03
2023-02-28T21:56:30.386Z,102374.34
2023-02-28T21:59:00.298Z,102367.41
2023-02-28T22:01:32.548Z,102365.69
2023-02-28T22:03:59.712Z,102370.59
2023-02-28T22:06:29.045Z,102366.72
2023-02-28T22:08:57.490Z,102375.50
2023-02-28T22:11:25.921Z,102370.47
2023-02-28T22:13:53.483Z,102378.75
2023-02-28T22:16:21.001Z,102368.81
2023-02-28T22:18:47.757Z,102374.84
2023-02-28T22:21:15.980Z,102369.00
2023-02-28T22:23:42.794Z,102371.16
2023-02-28T22:26:12.813Z,102371.69
2023-02-28T22:28:39.541Z,102363.66
2023-02-28T22:31:17.692Z,102359.78
2023-02-28T22:33:45.354Z,102365.28
2023-02-28T22:36:15.876Z,102360.28
2023-02-28T22:38:43.568Z,102355.28
2023-02-28T22:41:11.785Z,102365.72
2023-02-28T22:43:41.719Z,102365.38
2023-02-28T22:46:10.076Z,102370.56
2023-02-28T22:48:36.476Z,102378.50
2023-02-28T22:51:05.240Z,102376.00
2023-02-28T22:53:33.532Z,102376.75
2023-02-28T22:56:00.588Z,102375.34
2023-02-28T22:58:27.801Z,102379.19
2023-02-28T23:00:58.047Z,102378.25
2023-02-28T23:03:25.897Z,102388.97
2023-02-28T23:05:53.138Z,102393.88
2023-02-28T23:08:23.497Z,102392.47
2023-02-28T23:10:52.280Z,102383.63
2023-02-28T23:13:19.992Z,102391.31
2023-02-28T23:15:48.277Z,102391.31
2023-02-28T23:18:16.826Z,102391.31
2023-02-28T23:20:44.013Z,102392.63
2023-02-28T23:23:10.755Z,102394.53
2023-02-28T23:25:41.669Z,102394.81
2023-02-28T23:28:10.171Z,102387.38
2023-02-28T23:30:42.737Z,102383.25
2023-02-28T23:33:09.080Z,102393.16
2023-02-28T23:35:35.457Z,102390.63
2023-02-28T23:38:01.925Z,102393.63
2023-02-28T23:40:28.274Z,102390.88
2023-02-28T23:42:54.644Z,102400.22
2023-02-28T23:45:23.699Z,102394.97
2023-02-28T23:47:51.135Z,102398.78
2023-02-28T23:50:17.596Z,102393.56
2023-02-28T23:52:43.958Z,102393.56
2023-02-28T23:55:10.898Z,102397.13
2023-02-28T23:57:39.066Z,102400.72
